METAR Data
IDs: Format: Raw Decoded Include TAF

Data at: 0706 UTC 23 Feb 2019

PAOT 230653Z 15032KT 1/4SM R09/4500V6000FT +SN BLSN VV014 M01/M02 A2987 RMK AO2 PK WND 16041/0637 SLP113 P0003 T10111022 $
PAOT 230553Z 16031KT 1/2SM R09/4500VP6000FT SN BLSN VV014 M01/M02 A2987 RMK AO2 PK WND 16040/0515 SLP113 P0026 60050 T10111022 11011 21056 55000 $
PAOT 230453Z 16033G39KT 1/2SM R09/4500V5000FT SN BLSN VV010 M01/M02 A2986 RMK AO2 PK WND 15040/0406 SLP111 P0004 T10111022 $
PAOT 230353Z 15032KT 1/2SM R09/4000V4500FT +SN BLSN VV010 M01/M02 A2986 RMK AO2 PK WND 15038/0348 SLP110 P0008 T10111022 $
PAOT 230253Z 14030KT 1/4SM R09/2200V2400FT +SN BLSN VV006 M02/M03 A2987 RMK AO2 PK WND 13038/0154 SNEMMB26 SLP114 P0002 60012 T10171033 56019 $
PAOT 230211Z 14030KT 1/4SM R09/2200V2400FT BLSN VV007 M03/M04 A2987 RMK AO2 PK WND 13038/0154 SNEMM P0000 T10281039 $
PAOT 230153Z 13031KT 1/4SM R09/1800V2200FT +SN BLSN VV007 M03/M04 A2988 RMK AO2 PK WND 13038/0136 SLP117 P0004 T10281039
PAOT 230144Z 13032KT M1/4SM R09/1800V2400FT +SN BLSN VV007 M03/M04 A2988 RMK AO2 PK WND 13038/0136 P0004 T10281039
PAOT 230053Z AUTO 12030KT M1/4SM R09/1400V2000FT +SN BLSN VV006 M04/M06 A2990 RMK AO2 PK WND 12038/0034 SLP123 P0006 T10391056 TSNO
PAOT 222353Z 12032G37KT M1/4SM R09/1600V1800FT +SN BLSN VV007 M06/M07 A2992 RMK AO2 PK WND 12040/2315 SLP133 P0006 60019 T10561072 11056 21072 58018
PAOT 222343Z 12030KT 1/4SM R09/1400V2200FT +SN BLSN VV008 M06/M07 A2993 RMK AO2 PK WND 12040/2315 P0005 T10561072
PAOT 222333Z 12031KT 1/4SM R09/2000V2400FT +SN BLSN VV009 M06/M07 A2993 RMK AO2 PK WND 12040/2315 P0004 T10561072
PAOT 222253Z 12032KT M1/4SM R09/1600V2000FT +SN BLSN VV007 M06/M08 A2994 RMK AO2 PK WND 12038/2242 SLP140 P0005 T10611078
PAOT 222230Z 12032KT 1/4SM R09/1800V2200FT +SN BLSN VV009 M06/M08 A2995 RMK AO2 PK WND 12038/2225 P0003 T10611078
PAOT 222153Z 12031KT 1/4SM R09/1800V2400FT +SN BLSN VV011 M07/M08 A2996 RMK AO2 PK WND 11040/2111 SLP145 P0004 T10671083
PAOT 222053Z 11031KT 1/4SM R09/2200V2600FT +SN BLSN VV012 M07/M09 A2997 RMK AO2 PK WND 12040/2031 SLP150 P0003 60004 T10721094 58009
PAOT 222044Z 11032G40KT 1/4SM R09/2200V3000FT +SN BLSN VV013 M07/M09 A2998 RMK AO2 PK WND 12040/2031 P0001 T10721094
PAOT 221953Z 11032KT 1/4SM R09/3500V5000FT +SN BLSN OVC020 M07/M09 A2999 RMK AO2 PK WND 11037/1945 SLP154 P0001 T10721094
PAOT 221902Z 11029KT 1/4SM R09/5000VP6000FT -SN FZFG BKN019 OVC032 M07/M09 A2999 RMK AO2 PK WND 12033/1902 P0000 T10721094
PAOT 221853Z 11026KT 3/4SM R09/P6000FT -SN BR BKN019 OVC037 M07/M09 A2999 RMK AO2 PK WND 12033/1829 SLP157 P0000 T10721094
PAOT 221801Z 11027KT 4SM -SN BLSN BR SCT019 OVC060 M07/M10 A3000 RMK AO2 PK WND 11032/1759 P0000 T10721100
PAOT 221753Z 11028KT 4SM -SN BLSN BR BKN019 BKN031 OVC060 M07/M10 A3000 RMK AO2 PK WND 11032/1724 SLP160 P0000 60000 T10721100 11072 21100 56012
PAOT 221731Z 11027KT 4SM -SN BLSN BR SCT034 OVC055 M08/M10 A3000 RMK AO2 PK WND 11032/1724 P0000 T10781100
PAOT 221713Z 11026KT 1SM R09/P6000FT -SN BR BKN047 OVC055 M08/M10 A3001 RMK AO2 PK WND 11031/1657 P0000 T10781100
PAOT 221700Z 11027KT 3/4SM R09/P6000FT -SN BR BKN045 OVC060 M08/M10 A3001 RMK AO2 PK WND 11031/1657 P0000 T10781100
PAOT 221653Z 11026KT 2SM -SN FEW034 BKN046 OVC070 M08/M11 A3001 RMK AO2 PK WND 12030/1641 SNB23 SLP162 P0000 T10781106
PAOT 221553Z 11022KT 10SM BKN049 OVC060 M08/M11 A3003 RMK AO2 PK WND 11028/1505 SLP168 T10831111
PAOT 221453Z AUTO 11022KT 10SM CLR M09/M12 A3004 RMK AO2 PK WND 12027/1433 SLP172 T10891117 58001 TSNO
PAOT 221353Z AUTO 11021KT 10SM CLR M10/M12 A3005 RMK AO2 SLP177 T11001122 TSNO
PAOT 221253Z AUTO 12020G27KT 10SM FEW046 OVC060 M09/M12 A3005 RMK AO2 PK WND 11027/1250 SLP174 T10891117 TSNO
PAOT 221153Z AUTO 12020KT 10SM SCT040 OVC047 M08/M11 A3004 RMK AO2 PK WND 12028/1123 SLP173 60000 T10831111 11083 21094 53006 TSNO
PAOT 221053Z AUTO 12023KT 9SM SCT028 BKN047 OVC065 M09/M12 A3004 RMK AO2 PK WND 12030/1003 SLP171 T10891117 TSNO
PAOT 221042Z AUTO 12022KT 8SM BKN028 OVC045 M09/M12 A3004 RMK AO2 PK WND 12030/1003 T10891117 TSNO
PAOT 220953Z 12025KT 5SM HZ FEW023 SCT028 OVC070 M09/M12 A3003 RMK AO2 PK WND 11028/0953 UPB13E31SNE10 SLP169 P0000 T10891122
PAOT 220918Z 11023KT 4SM UP FEW027 SCT036 OVC075 M09/M12 A3002 RMK AO2 PK WND 11027/0916 UPB13SNE10 P0000 T10891122
PAOT 220909Z 11020KT 4SM -SN FEW014 BKN025 OVC075 M09/M12 A3002 RMK AO2 P0000 T10891122
PAOT 220853Z 11023KT 2SM -SN SCT014 BKN023 OVC046 M09/M12 A3003 RMK AO2 PK WND 12028/0853 SLP167 P0000 60000 T10891117 410831106 53009
PAOT 220847Z 11024KT 2SM -SN BKN014 BKN029 OVC065 M09/M12 A3002 RMK AO2 PK WND 12027/0844 P0000
PAOT 220753Z 11021KT 7SM -SN OVC023 M09/M13 A3001 RMK AO2 PK WND 11028/0658 SNB50 SLP163 P0000 T10941128
PAOT 220653Z 11024KT 10SM OVC021 M09/M12 A3000 RMK AO2 PK WND 11028/0653 SLP159 T10891122
PAOT 220553Z 11023KT 10SM OVC024 M09/M13 A3000 RMK AO2 PK WND 11029/0551 SLP158 T10891128 11083 21106 51007
PAOT 220453Z 11022KT 10SM BKN021 M09/M13 A2999 RMK AO2 PK WND 11026/0436 SLP155 T10941133
PAOT 220353Z 10018KT 10SM BKN023 M10/M13 A2999 RMK AO2 SLP154 T11001133
PAOT 220253Z 10020KT 10SM FEW040 BKN120 M09/M13 A2998 RMK AO2 PK WND 11027/0154 SLP151 T10941133 50001
PAOT 220153Z 11025KT 10SM FEW034 BKN070 M09/M13 A2998 RMK AO2 PK WND 10031/0142 SLP151 T10891128
PAOT 220053Z 10023KT 8SM SCT035 BKN070 M09/M13 A2998 RMK AO2 PK WND 10028/0034 SLP152 T10891128
PAOT 220029Z 10023KT 10SM FEW025 BKN030 OVC070 M09/M13 A2998 RMK AO2 PK WND 11027/2356 T10891128
PAOT 220000Z 11023KT 10SM OVC028 M09/M13 A2998 RMK AO2 PK WND 11027/2356 T10891128
PAOT 212353Z 10022KT 9SM SCT021 BKN080 M09/M13 A2997 RMK AO2 PK WND 11028/2311 SLP150 T10891128 11089 21100 51009
PAOT 212253Z 11024KT 9SM SCT021 BKN080 OVC100 M09/M13 A2996 RMK AO2 PK WND 11027/2252 SLP147 T10941133
PAOT 212153Z 10020KT 9SM SCT027 OVC033 M09/M13 A2996 RMK AO2 PK WND 09029/2141 SLP146 T10941133
PAOT 212053Z 09021KT 8SM SCT029 OVC035 M09/M14 A2995 RMK AO2 PK WND 10028/2048 SLP140 T10941139 51017
PAOT 212036Z 10022KT 10SM OVC031 M09/M14 A2995 RMK AO2 PK WND 10027/2034 T10941139
PAOT 212000Z 10020KT 10SM OVC027 M09/M14 A2994 RMK AO2 T10941139
PAOT 211953Z 10020KT 10SM OVC030 M09/M14 A2994 RMK AO2 SLP137 T10941139